首页
METAR-TAF:

METAR-TAF

机场 :

门罗, 路易斯安那州, 美国

纬度: 32-30-42N, 经度: 092-01-53W, 海拔: 24米

当前天气观测

该预报发布于34分钟前的01:53 UTC
静风
温度 18°C
湿度 88%
气压 1017 hPa
能見度: 16.1公里
天空无云

METAR: KMLU 060153Z 00000KT 10SM CLR 18/16 A3004 RMK AO2 SLP171 T01830156

时间: 21:27 (02:27 UTC)

预报

该预报发布于34分钟前的01:53 UTC
预报有效从06日的 02点(UTC)到 06日的 24点(UTC)
风速3节,风向多变
能見度: 10公里
多云层高于20000英尺
从 06日的 1200点(UTC)
风速节,风向
能見度: 10公里
散云层高于6000英尺
从 06日的 1300点(UTC)
风速节,风向
能見度: 10公里
散云层高于2500英尺

TAF: KMLU 060153Z 0602/0624 VRB03KT P6SM BKN200 FM061200 00000KT P6SM SCT060 FM061300 00000KT P6SM SCT025

超过4000个机场的气象观测和天气预报(METAR&TAF报告)。

可查询的气象台以黄色和红色小点在地图上表示。

将鼠标移到小点上方,可查看气象台名称。

然后点击查看天气观测和预报。

如需切换地图:点击带黑十字的绿色按钮放大地图;点击带横线的绿色按钮缩小地图;或者点击绿色箭头查看邻近地区的地图。


METAR-TAF: